Flight Track Log - Related Links

Times and Time Zones

All times are in EDT time to prevent confusion due to time zone crossing. See the DAL1941 flight status page for this flight to view local times or setup timezone preferences in your user account.

Time Position Orientation Groundspeed Altitude Reporting Facility
EDT Latitude Longitude Course Direction KTS MPH feet Rate Location/Type
Mon 06:04:02 AM 42.9167 -71.4167 231° Southwest 156 180 1,100  Level KA90
Mon 06:05:04 AM 42.8622 -71.4386 196° South 194 223 2,800 2,410 Climbing Boston Center
Mon 06:06:04 AM 42.8019 -71.3967 153° Southeast 284 327 6,000 3,300 Climbing Boston Center
Mon 06:07:00 AM 42.6193 -71.9759 232° Southwest  Level Estimated
Mon 06:07:04 AM 42.8425 -71.3092 58° Northeast 294 338 9,400  Level Boston Center
Mon 06:08:00 AM 42.5406 -72.1101 231° Southwest  Level Estimated
Mon 06:08:05 AM 42.9189 -71.2383 34° Northeast 315 362 12,100  Level Boston Center
Mon 06:09:00 AM 42.4616 -72.2439 231° Southwest  Level Estimated
Mon 06:09:05 AM 42.9642 -71.1381 58° Northeast 340 391 14,000  Level Boston Center
Mon 06:10:06 AM 42.9664 -70.9808 89° East 412 474 15,600 1,785 Climbing Boston Center
Mon 06:11:06 AM 42.8750 -70.8844 142° Southeast 441 507 17,600 1,850 Climbing Boston Center
Mon 06:12:06 AM 42.7756 -70.9194 194° South 441 507 19,300 1,686 Climbing Boston Center
Mon 06:13:07 AM 42.6656 -70.9956 207° Southwest 443 510 21,000 1,686 Climbing Boston Center
Mon 06:14:07 AM 42.5522 -71.0817 209° Southwest 462 532 22,700 1,736 Climbing Boston Center
Mon 06:15:08 AM 42.4592 -71.2431 232° Southwest 462 532 24,500 1,934 Climbing Boston Center
Mon 06:16:08 AM 42.4011 -71.3975 243° Southwest 462 532 26,600 1,636 Climbing Boston Center
Mon 06:17:09 AM 42.3453 -71.5550 244° Southwest 463 533 27,800 1,488 Climbing Boston Center
Mon 06:18:09 AM 42.2939 -71.6894 243° Southwest 465 535 29,600 1,537 Climbing Boston Center
Mon 06:19:10 AM 42.2350 -71.8442 243° Southwest 464 534 30,900 1,240 Climbing Boston Center
Mon 06:20:10 AM 42.1772 -71.9989 243° Southwest 462 532 32,100 1,240 Climbing Boston Center
Mon 06:21:11 AM 42.1183 -72.1500 242° Southwest 453 521 33,400 942 Climbing Boston Center
Mon 06:22:11 AM 42.0606 -72.2989 242° Southwest 448 516 34,000 298 Climbing Boston Center
Mon 06:23:12 AM 42.0025 -72.4492 243° Southwest 448 516 34,000  Level Boston Center
Mon 06:24:12 AM 41.9458 -72.5986 243° Southwest 447 514 34,000  Level Boston Center
Mon 06:25:13 AM 41.8869 -72.7456 242° Southwest 446 513 34,000  Level Boston Center
Mon 06:26:13 AM 41.8278 -72.8961 242° Southwest 447 514 34,000  Level Boston Center
Mon 06:27:14 AM 41.7686 -73.0431 242° Southwest 447 514 34,000  Level Boston Center
Mon 06:28:15 AM 41.7094 -73.1906 242° Southwest 447 514 34,000  Level Boston Center
Mon 06:29:15 AM 41.6464 -73.3369 240° Southwest 447 514 34,000  Level Boston Center
Mon 06:30:16 AM 41.5622 -73.4667 229° Southwest 459 528 34,000  Level Boston Center
Mon 06:31:16 AM 41.4725 -73.6039 229° Southwest 459 528 34,000  Level Boston Center
Mon 06:32:17 AM 41.3875 -73.7331 229° Southwest 462 532 34,000  Level Boston Center
Mon 06:33:17 AM 41.3031 -73.8600 228° Southwest 461 531 34,000  Level Boston Center
Mon 06:34:17 AM 41.2133 -73.9981 229° Southwest 467 537 34,000  Level New York Center
Mon 06:35:16 AM 41.1244 -74.1258 227° Southwest 472 543 34,000  Level New York Center
Mon 06:36:16 AM 41.0414 -74.2594 231° Southwest 472 543 34,000  Level New York Center
Mon 06:37:16 AM 40.9603 -74.3925 231° Southwest 467 537 34,000  Level New York Center
Mon 06:38:17 AM 40.8769 -74.5281 231° Southwest 467 537 34,000  Level New York Center
Mon 06:39:16 AM 40.7975 -74.6608 232° Southwest 473 544 34,000 -50 Level New York Center
Mon 06:40:17 AM 40.7142 -74.7900 230° Southwest 473 544 33,900  Descending New York Center
Mon 06:41:18 AM 40.6325 -74.9222 231° Southwest 473 544 34,000 50 Climbing New York Center
Mon 06:42:16 AM 40.5636 -75.0408 233° Southwest 473 544 34,000  Level New York Center
Mon 06:43:18 AM 40.4817 -75.1722 231° Southwest 473 544 34,000  Level New York Center
Mon 06:44:17 AM 40.3997 -75.3006 230° Southwest 473 544 34,000  Level New York Center
Mon 06:45:18 AM 40.3172 -75.4339 231° Southwest 473 544 34,000  Level New York Center
Mon 06:46:19 AM 40.2350 -75.5644 231° Southwest 473 544 34,000  Level New York Center
Mon 06:47:17 AM 40.1544 -75.6947 231° Southwest 473 544 34,000  Level New York Center
Mon 06:48:17 AM 40.0697 -75.8269 230° Southwest 473 544 34,000 -50 Level New York Center
Mon 06:49:17 AM 39.9889 -75.9594 231° Southwest 473 544 33,900  Descending New York Center
Mon 06:50:16 AM 39.9122 -76.0917 233° Southwest 473 544 34,000 49 Climbing New York Center
Mon 06:51:19 AM 39.8117 -76.2356 228° Southwest 473 544 34,000  Level New York Center
Mon 06:52:24 AM 39.7214 -76.3792 231° Southwest 478 550 34,000  Level Washington Center
Mon 06:53:24 AM 39.6353 -76.5050 228° Southwest 468 539 34,000  Level Washington Center
Mon 06:54:21 AM 39.5614 -76.6225 231° Southwest 474 545 34,000  Level Washington Center
Mon 06:55:24 AM 39.4767 -76.7558 231° Southwest 474 545 34,000  Level Washington Center
Mon 06:56:22 AM 39.3942 -76.8858 231° Southwest 474 545 34,000  Level Washington Center
Mon 06:57:24 AM 39.3114 -77.0158 231° Southwest 474 545 34,000  Level Washington Center
Mon 06:58:21 AM 39.2264 -77.1456 230° Southwest 474 545 34,000  Level Washington Center
Mon 06:59:23 AM 39.1392 -77.2775 230° Southwest 479 551 34,000  Level Washington Center
Mon 07:00:23 AM 39.0539 -77.4039 229° Southwest 479 551 34,000  Level Washington Center
Mon 07:01:21 AM 38.9686 -77.5325 230° Southwest 479 551 34,000  Level Washington Center
Mon 07:02:22 AM 38.8744 -77.6742 230° Southwest 479 551 34,000  Level Washington Center
Mon 07:03:24 AM 38.7847 -77.8047 229° Southwest 486 559 34,000  Level Washington Center
Mon 07:04:22 AM 38.6989 -77.9325 229° Southwest 487 560 34,000  Level Washington Center
Mon 07:05:22 AM 38.6128 -78.0600 229° Southwest 482 555 34,000  Level Washington Center
Mon 07:06:21 AM 38.5247 -78.1897 229° Southwest 482 555 34,000  Level Washington Center
Mon 07:07:22 AM 38.4383 -78.3192 230° Southwest 482 555 34,000  Level Washington Center
Mon 07:08:23 AM 38.3542 -78.4458 230° Southwest 482 555 34,000  Level Washington Center
Mon 07:09:22 AM 38.2850 -78.5492 230° Southwest 482 555 34,000  Level Washington Center
Mon 07:10:24 AM 38.1917 -78.6908 230° Southwest 476 548 34,000  Level Washington Center
Mon 07:11:24 AM 38.1050 -78.8164 229° Southwest 476 548 34,000 356 Level Washington Center
Mon 07:12:22 AM 38.0181 -78.9419 229° Southwest 476 548 34,700 661 Climbing Washington Center
Mon 07:13:22 AM 37.9311 -79.0697 229° Southwest 476 548 35,300 545 Climbing Washington Center
Mon 07:14:23 AM 37.8308 -79.2122 228° Southwest 483 556 35,800 344 Climbing Washington Center
Mon 07:15:24 AM 37.7414 -79.3394 228° Southwest 483 556 36,000 101 Climbing Washington Center
Mon 07:16:22 AM 37.6456 -79.4631 226° Southwest 495 570 36,000  Level Washington Center
Mon 07:17:23 AM 37.5625 -79.5794 228° Southwest 502 578 36,000  Level Washington Center
Mon 07:18:23 AM 37.4597 -79.7206 227° Southwest 502 578 36,000  Level Washington Center
Mon 07:20:00 AM 37.3053 -79.9294 227° Southwest 486 559 36,000  Level Atlanta Center
Mon 07:21:00 AM 37.2194 -80.0436 227° Southwest 486 559 36,000  Level Atlanta Center
Mon 07:22:00 AM 37.1275 -80.1731 228° Southwest 491 565 36,000  Level Atlanta Center
Mon 07:23:00 AM 37.0336 -80.2972 227° Southwest 491 565 36,000  Level Atlanta Center
Mon 07:24:00 AM 36.9292 -80.4372 227° Southwest 491 565 36,000  Level Atlanta Center
Mon 07:25:00 AM 36.8369 -80.5608 227° Southwest 486 559 36,000  Level Atlanta Center
Mon 07:26:00 AM 36.7544 -80.6706 227° Southwest 484 557 36,000  Level Atlanta Center
Mon 07:27:00 AM 36.6597 -80.7961 227° Southwest 484 557 36,000  Level Atlanta Center
Mon 07:28:00 AM 36.5631 -80.9217 226° Southwest 489 563 36,000  Level Atlanta Center
Mon 07:29:00 AM 36.4681 -81.0467 227° Southwest 489 563 36,000  Level Atlanta Center
Mon 07:30:00 AM 36.3731 -81.1739 227° Southwest 494 568 36,000  Level Atlanta Center
Mon 07:31:00 AM 36.2758 -81.2958 225° Southwest 494 568 36,000  Level Atlanta Center
Mon 07:32:00 AM 36.1806 -81.4200 226° Southwest 494 568 36,000  Level Atlanta Center
Mon 07:33:00 AM 36.0892 -81.5439 228° Southwest 494 568 36,000  Level Atlanta Center
Mon 07:34:00 AM 35.9917 -81.6700 226° Southwest 494 568 36,000 -50 Level Atlanta Center
Mon 07:35:00 AM 35.8981 -81.7906 226° Southwest 494 568 35,900 -500 Descending Atlanta Center
Mon 07:36:00 AM 35.8042 -81.9083 226° Southwest 489 563 35,000 -450 Descending Atlanta Center
Mon 07:37:00 AM 35.7122 -82.0286 227° Southwest 489 563 35,000  Level Atlanta Center
Mon 07:38:00 AM 35.6181 -82.1483 226° Southwest 489 563 35,000  Level Atlanta Center
Mon 07:39:00 AM 35.5239 -82.2653 225° Southwest 489 563 35,000 -700 Level Atlanta Center
Mon 07:40:00 AM 35.4211 -82.3772 222° Southwest 489 563 33,600 -1,450 Descending Atlanta Center
Mon 07:41:00 AM 35.3225 -82.4861 222° Southwest 489 563 32,100 -1,800 Descending Atlanta Center
Mon 07:42:00 AM 35.2114 -82.6100 222° Southwest 483 556 30,000 -1,950 Descending Atlanta Center
Mon 07:43:00 AM 35.1103 -82.7186 221° Southwest 490 564 28,200 -1,750 Descending Atlanta Center
Mon 07:44:00 AM 35.0114 -82.8317 223° Southwest 490 564 26,500 -1,700 Descending Atlanta Center
Mon 07:45:00 AM 34.9100 -82.9394 221° Southwest 490 564 24,800 -1,250 Descending Atlanta Center
Mon 07:46:00 AM 34.8169 -83.0494 224° Southwest 480 552 24,000 -400 Descending Atlanta Center
Mon 07:47:00 AM 34.7178 -83.1569 222° Southwest 480 552 24,000  Level Atlanta Center
Mon 07:48:00 AM 34.6244 -83.2664 224° Southwest 474 545 24,000  Level Atlanta Center
Mon 07:49:00 AM 34.5311 -83.3581 219° Southwest 474 545 24,000  Level Atlanta Center
Mon 07:50:00 AM 34.4378 -83.4619 223° Southwest 464 534 24,000 -950 Level Atlanta Center
Mon 07:51:00 AM 34.3422 -83.5658 222° Southwest 464 534 22,100 -2,400 Descending Atlanta Center
Mon 07:52:00 AM 34.2508 -83.6694 223° Southwest 459 528 19,200 -2,750 Descending Atlanta Center
Mon 07:53:00 AM 34.1633 -83.7628 221° Southwest 447 514 16,600 -2,500 Descending Atlanta Center
Mon 07:54:00 AM 34.0800 -83.8533 222° Southwest 420 483 14,200 -2,150 Descending Atlanta Center
Mon 07:55:00 AM 33.9989 -83.9386 221° Southwest 398 458 12,300 -1,100 Descending Atlanta Center
Mon 07:56:00 AM 33.9050 -84.0189 215° Southwest 385 443 12,000 -150 Descending Atlanta Center
Mon 07:57:00 AM 33.8233 -84.0814 212° Southwest 367 422 12,000  Level Atlanta Center
Mon 07:58:00 AM 33.7483 -84.1289 208° Southwest 325 374 12,000  Level Atlanta Center
Mon 07:59:00 AM 33.7272 -84.2186 254° West 277 319 12,000 -300 Level Atlanta Center
Mon 08:00:00 AM 33.7292 -84.3161 271° West 271 312 11,400 -1,655 Descending Atlanta Center
Mon 08:01:25 AM 33.7333 -84.4500 272° West 276 318 8,000 -2,331 Descending Atlanta TRACON
Mon 08:02:19 AM 33.7333 -84.5333 270° West 263 303 6,000 -1,789 Descending Atlanta TRACON
Mon 08:03:19 AM 33.7333 -84.6000 270° West 235 270 4,600 -950 Descending Atlanta TRACON
Mon 08:04:19 AM 33.7000 -84.6500 231° Southwest 195 224 4,100 -450 Descending Atlanta TRACON
Mon 08:05:19 AM 33.6500 -84.6000 140° Southeast 196 226 3,700 -750 Descending Atlanta TRACON
Mon 08:06:19 AM 33.6500 -84.5333 90° East 201 231 2,600 -1,000 Descending Atlanta TRACON
Mon 08:07:19 AM 33.6500 -84.4833 90° East 165 190 1,700 -789 Descending Atlanta TRACON
Mon 08:08:13 AM 33.6500 -84.4333 90° East 136 157 1,100 -667 Descending Atlanta TRACON

Login

Don't have an account? Register now (free) for customized features, flight alerts, and more!